Time;durP1;ratioP1;P1;durP2;ratioP2;P2;SDS_P1;SDS_P2;PMS_P1;PMS_P2;Temp;Humidity;BMP_temperature;BMP_pressure;BME280_temperature;BME280_humidity;BME280_pressure;Samples;Min_cycle;Max_cycle;Signal;HPM_P1;HPM_P2
2022/03/09 00:00:34;;;;;;;0.10;0.10;;;22.30;99.90;;;;;;5045486;28;20380;-85
2022/03/09 00:03:01;;;;;;;0.73;0.70;;;22.50;99.90;;;;;;5041873;28;20384;-84
2022/03/09 00:05:28;;;;;;;0.30;0.20;;;22.60;99.90;;;;;;5031146;28;20397;-88
2022/03/09 00:07:58;;;;;;;1.25;0.10;;;22.90;99.90;;;;;;5045419;28;20873;-88
2022/03/09 00:10:25;;;;;;;1.27;0.10;;;22.80;99.90;;;;;;5050682;28;20394;-88
2022/03/09 00:12:53;;;;;;;1.48;0.28;;;23.00;99.90;;;;;;5049956;28;20474;-89
2022/03/09 00:15:20;;;;;;;0.70;0.20;;;23.40;99.90;;;;;;5055263;28;20375;-84
2022/03/09 00:17:47;;;;;;;1.20;0.52;;;23.70;99.90;;;;;;5048525;28;20388;-91
2022/03/09 00:20:14;;;;;;;0.70;0.30;;;23.90;99.90;;;;;;5043073;28;20762;-82
2022/03/09 00:22:41;;;;;;;2.75;0.60;;;23.80;99.90;;;;;;5056418;28;20383;-82
2022/03/09 00:25:10;;;;;;;0.40;0.20;;;23.90;99.90;;;;;;5051367;28;20477;-87
2022/03/09 00:27:37;;;;;;;3.30;0.52;;;23.80;99.90;;;;;;5031552;28;20882;-91
2022/03/09 00:30:06;;;;;;;2.45;0.50;;;23.90;99.90;;;;;;5031512;28;20405;-92
2022/03/09 00:32:33;;;;;;;0.85;0.52;;;23.90;99.90;;;;;;5046719;28;20906;-90
2022/03/09 00:35:00;;;;;;;2.25;0.30;;;23.80;99.90;;;;;;5051998;28;21065;-86
2022/03/09 00:37:28;;;;;;;1.30;0.22;;;23.90;99.90;;;;;;5053647;28;20426;-90
2022/03/09 00:39:55;;;;;;;2.58;0.30;;;24.20;99.90;;;;;;5037981;28;20496;-91
2022/03/09 00:42:22;;;;;;;1.85;0.40;;;24.60;99.40;;;;;;5050678;28;20373;-87
2022/03/09 00:44:49;;;;;;;0.65;0.30;;;24.90;98.90;;;;;;5033823;28;21005;-86
2022/03/09 00:47:16;;;;;;;0.47;0.40;;;24.50;97.80;;;;;;5048607;28;20379;-88
2022/03/09 00:49:43;;;;;;;1.65;0.20;;;24.00;99.70;;;;;;5051029;28;20388;-89
2022/03/09 00:52:10;;;;;;;0.35;0.20;;;23.80;99.90;;;;;;5051528;28;20898;-90
2022/03/09 00:54:37;;;;;;;1.73;0.70;;;23.60;99.80;;;;;;5051267;28;20470;-93
2022/03/09 00:57:04;;;;;;;1.00;0.32;;;23.30;99.90;;;;;;5051204;28;20379;-91
2022/03/09 00:59:31;;;;;;;1.40;0.40;;;23.40;99.90;;;;;;5051245;28;20426;-87
2022/03/09 01:01:57;;;;;;;1.20;0.50;;;23.40;99.90;;;;;;5050385;28;20383;-91
2022/03/09 01:04:24;;;;;;;0.80;0.32;;;23.10;99.90;;;;;;5050728;28;20376;-85
2022/03/09 01:06:51;;;;;;;1.00;0.50;;;23.20;99.90;;;;;;5048724;28;20368;-90
2022/03/09 01:09:18;;;;;;;1.10;0.60;;;23.10;99.90;;;;;;5041858;28;20396;-89
2022/03/09 01:11:45;;;;;;;0.93;0.30;;;23.30;99.90;;;;;;5050415;28;20374;-90
2022/03/09 01:14:12;;;;;;;0.75;0.20;;;23.50;99.90;;;;;;5048406;28;20380;-86
2022/03/09 01:16:39;;;;;;;1.98;0.30;;;23.70;99.90;;;;;;5050070;28;20434;-86
2022/03/09 01:19:09;;;;;;;3.05;0.30;;;23.80;99.90;;;;;;5049621;28;20380;-88
2022/03/09 01:21:36;;;;;;;0.65;0.30;;;24.10;99.90;;;;;;5050005;28;20389;-90
2022/03/09 01:24:04;;;;;;;1.40;0.35;;;24.30;99.60;;;;;;5050194;28;20894;-88
2022/03/09 01:26:31;;;;;;;0.47;0.28;;;24.30;99.00;;;;;;5037566;28;20463;-93
2022/03/09 01:28:58;;;;;;;2.22;0.50;;;24.70;97.10;;;;;;5030220;28;20462;-89
2022/03/09 01:31:25;;;;;;;6.40;0.55;;;25.10;97.10;;;;;;5029886;28;20459;-92
2022/03/09 01:33:52;;;;;;;5.20;0.70;;;25.10;95.50;;;;;;5033287;28;20434;-88
2022/03/09 01:36:19;;;;;;;1.83;0.32;;;25.00;94.20;;;;;;5049777;28;20376;-89
2022/03/09 01:38:46;;;;;;;2.40;0.30;;;24.50;95.20;;;;;;5050699;28;20882;-87
2022/03/09 01:41:13;;;;;;;3.53;0.40;;;24.30;95.60;;;;;;5050405;28;20380;-90
2022/03/09 01:43:41;;;;;;;4.55;0.40;;;24.30;95.40;;;;;;5050095;28;20490;-92
2022/03/09 01:46:08;;;;;;;6.00;0.40;;;24.60;94.90;;;;;;5049941;28;20462;-85
2022/03/09 01:48:35;;;;;;;4.00;0.43;;;24.80;94.40;;;;;;5050606;28;20396;-93
2022/03/09 01:51:02;;;;;;;1.98;0.40;;;25.30;93.00;;;;;;5050092;28;20471;-89
2022/03/09 01:53:29;;;;;;;1.48;0.40;;;25.40;91.50;;;;;;5049401;28;20476;-85
2022/03/09 01:55:56;;;;;;;4.57;0.52;;;24.70;93.70;;;;;;5049745;28;20404;-94
2022/03/09 01:58:23;;;;;;;0.88;0.45;;;25.20;93.40;;;;;;5050362;28;20371;-94
2022/03/09 02:00:50;;;;;;;1.80;0.50;;;25.70;90.70;;;;;;5048108;28;20414;-88
2022/03/09 02:03:17;;;;;;;4.05;0.40;;;25.60;92.70;;;;;;5049665;28;20379;-89
2022/03/09 02:05:44;;;;;;;2.30;0.20;;;26.10;90.10;;;;;;5049770;28;20436;-91
2022/03/09 02:10:57;;;;;;;1.50;0.30;;;26.10;90.20;;;;;;5049128;28;20885;-92
2022/03/09 02:13:24;;;;;;;1.40;0.13;;;25.80;90.20;;;;;;5048965;28;20406;-90
2022/03/09 02:15:50;;;;;;;2.40;0.30;;;25.50;90.50;;;;;;5049576;28;20376;-89
2022/03/09 02:18:17;;;;;;;1.20;0.30;;;25.50;90.20;;;;;;5049515;28;20421;-87
2022/03/09 02:20:46;;;;;;;5.60;0.40;;;26.20;88.10;;;;;;5048899;28;20420;-89
2022/03/09 02:23:13;;;;;;;3.70;0.40;;;26.80;84.40;;;;;;5049763;28;20383;-90
2022/03/09 02:25:40;;;;;;;0.38;0.20;;;27.00;82.30;;;;;;5048923;28;20725;-89
2022/03/09 02:28:07;;;;;;;0.10;0.10;;;26.40;83.20;;;;;;5049273;28;20407;-93
2022/03/09 02:30:34;;;;;;;1.60;0.20;;;25.90;85.30;;;;;;5049658;28;20372;-87
2022/03/09 02:33:01;;;;;;;0.15;0.15;;;26.60;85.30;;;;;;5049244;28;20483;-87
2022/03/09 02:35:27;;;;;;;0.40;0.33;;;26.60;86.10;;;;;;5048709;28;20831;-83
2022/03/09 02:37:55;;;;;;;1.20;0.30;;;26.30;83.90;;;;;;5048672;28;20450;-91
2022/03/09 02:40:22;;;;;;;1.50;0.30;;;26.20;83.90;;;;;;5048719;28;20411;-84
2022/03/09 02:42:49;;;;;;;2.75;0.30;;;26.00;85.40;;;;;;5048927;28;20447;-87
2022/03/09 02:45:17;;;;;;;2.53;0.30;;;26.10;87.00;;;;;;5048612;28;20384;-88
2022/03/09 02:47:46;;;;;;;1.65;0.20;;;26.40;84.40;;;;;;5048442;28;20383;-88
2022/03/09 02:50:14;;;;;;;1.65;0.22;;;26.20;84.40;;;;;;5051658;28;20907;-87
2022/03/09 02:52:42;;;;;;;1.10;0.30;;;26.20;82.70;;;;;;5049992;28;20478;-90
2022/03/09 02:55:11;;;;;;;1.15;0.30;;;26.40;83.30;;;;;;5050430;28;20462;-89
2022/03/09 02:57:39;;;;;;;1.10;0.20;;;26.20;82.00;;;;;;5050085;28;20434;-88
2022/03/09 03:00:08;;;;;;;2.60;0.38;;;26.50;81.70;;;;;;5048964;28;20368;-88
2022/03/09 03:02:36;;;;;;;2.60;0.40;;;26.90;81.40;;;;;;5048650;28;20383;-89
2022/03/09 03:05:04;;;;;;;1.55;0.30;;;26.70;81.10;;;;;;5050042;28;20899;-85
2022/03/09 03:07:31;;;;;;;1.50;0.40;;;26.50;80.60;;;;;;5049803;28;20466;-90
2022/03/09 03:09:58;;;;;;;2.93;0.30;;;26.70;80.70;;;;;;5043881;28;20385;-86
2022/03/09 03:12:25;;;;;;;3.90;0.40;;;27.20;75.80;;;;;;5050004;28;20396;-86
2022/03/09 03:14:52;;;;;;;1.23;0.40;;;27.40;76.50;;;;;;5049218;28;20389;-88
2022/03/09 03:17:19;;;;;;;1.20;0.40;;;28.00;75.60;;;;;;5027685;28;20448;-85
2022/03/09 03:19:46;;;;;;;2.35;0.60;;;27.30;72.90;;;;;;5030684;28;20389;-88
2022/03/09 03:22:13;;;;;;;2.85;0.45;;;26.90;79.90;;;;;;5032727;28;20393;-87
2022/03/09 03:24:40;;;;;;;4.10;0.30;;;26.90;75.20;;;;;;5033297;28;20469;-86
2022/03/09 03:27:07;;;;;;;2.33;0.40;;;27.50;75.40;;;;;;5033950;28;20387;-87
2022/03/09 03:29:34;;;;;;;2.38;0.25;;;27.50;74.30;;;;;;5051144;28;20387;-90
2022/03/09 03:32:01;;;;;;;0.65;0.40;;;27.90;71.80;;;;;;5048781;28;20455;-91
2022/03/09 03:34:28;;;;;;;1.40;0.60;;;27.70;70.80;;;;;;5048781;28;20390;-87
2022/03/09 03:36:55;;;;;;;5.43;0.63;;;27.90;73.70;;;;;;5049291;28;20902;-87
2022/03/09 03:39:22;;;;;;;4.25;0.50;;;28.70;71.00;;;;;;5049653;28;20425;-92
2022/03/09 03:41:49;;;;;;;2.25;0.40;;;29.20;68.80;;;;;;5049667;28;20378;-85
2022/03/09 03:44:16;;;;;;;1.52;0.40;;;29.30;67.30;;;;;;5049744;28;20451;-88
2022/03/09 03:46:44;;;;;;;2.23;0.20;;;29.50;67.60;;;;;;5049885;28;20432;-86
2022/03/09 03:49:11;;;;;;;2.83;0.30;;;28.80;66.20;;;;;;5048984;28;20384;-89
2022/03/09 03:51:38;;;;;;;3.42;0.40;;;27.90;69.90;;;;;;5050220;28;20479;-87
2022/03/09 03:54:05;;;;;;;2.75;0.30;;;27.70;72.00;;;;;;5048599;28;20793;-87
2022/03/09 03:56:32;;;;;;;6.67;0.73;;;28.00;72.80;;;;;;5048730;28;20433;-89
2022/03/09 03:58:59;;;;;;;2.55;0.40;;;29.10;68.30;;;;;;5047129;28;20399;-90
2022/03/09 04:01:26;;;;;;;4.85;0.35;;;29.20;64.10;;;;;;5041342;28;20385;-89
2022/03/09 04:03:53;;;;;;;3.35;0.40;;;29.40;63.90;;;;;;5049225;28;20376;-89
2022/03/09 04:06:20;;;;;;;1.40;0.38;;;30.10;63.40;;;;;;5050652;28;20372;-91
2022/03/09 04:08:47;;;;;;;1.00;0.20;;;30.70;61.20;;;;;;5052429;28;20437;-85
2022/03/09 04:11:14;;;;;;;2.35;0.30;;;30.60;60.10;;;;;;5051149;28;20394;-92
2022/03/09 04:13:42;;;;;;;2.72;0.30;;;30.40;60.30;;;;;;5053619;28;20446;-87
2022/03/09 04:16:10;;;;;;;0.50;0.28;;;30.20;61.70;;;;;;5052420;28;20382;-88
2022/03/09 04:18:37;;;;;;;1.20;0.10;;;30.20;60.20;;;;;;5052375;28;20902;-87
2022/03/09 04:21:05;;;;;;;0.60;0.30;;;30.00;62.70;;;;;;5053559;28;20391;-88
2022/03/09 04:23:35;;;;;;;0.77;0.40;;;29.00;65.20;;;;;;5046468;28;20509;-87
2022/03/09 04:26:06;;;;;;;4.75;0.40;;;28.20;66.30;;;;;;5033418;28;20381;-89
2022/03/09 04:28:33;;;;;;;1.35;0.30;;;27.70;67.70;;;;;;5034597;28;20752;-88
2022/03/09 04:31:00;;;;;;;1.08;0.30;;;26.80;69.10;;;;;;5035270;28;20377;-90
2022/03/09 04:33:27;;;;;;;0.68;0.30;;;26.40;72.80;;;;;;5040431;28;20837;-86
2022/03/09 04:35:54;;;;;;;2.63;0.40;;;25.90;73.00;;;;;;5042657;28;20862;-89
2022/03/09 04:38:21;;;;;;;2.05;0.40;;;26.80;73.40;;;;;;5052922;28;20458;-88
2022/03/09 04:40:48;;;;;;;1.20;0.20;;;27.80;73.40;;;;;;5050420;28;20380;-91
2022/03/09 04:43:15;;;;;;;0.70;0.20;;;27.70;69.10;;;;;;5056050;28;20387;-89
2022/03/09 04:45:42;;;;;;;1.00;0.20;;;28.00;66.80;;;;;;5054317;28;20855;-87
2022/03/09 04:48:09;;;;;;;1.45;0.20;;;27.90;66.60;;;;;;5054130;28;20409;-87
2022/03/09 04:50:37;;;;;;;0.80;0.20;;;27.40;67.50;;;;;;5052633;28;20461;-87
2022/03/09 04:53:04;;;;;;;1.33;0.20;;;27.70;67.00;;;;;;5050602;28;20407;-89
2022/03/09 04:55:31;;;;;;;1.30;0.20;;;27.90;67.00;;;;;;5044780;28;20397;-88
2022/03/09 04:57:58;;;;;;;0.57;0.20;;;28.40;66.40;;;;;;5049386;28;20963;-86
2022/03/09 05:00:25;;;;;;;0.20;0.20;;;28.60;64.40;;;;;;5043665;28;20453;-91
2022/03/09 05:02:52;;;;;;;2.67;0.40;;;28.70;65.40;;;;;;5044854;28;20416;-90
2022/03/09 05:05:19;;;;;;;1.65;0.30;;;29.10;63.30;;;;;;5059205;28;20385;-88
2022/03/09 05:07:46;;;;;;;2.42;0.40;;;29.60;61.00;;;;;;5036800;28;20373;-89
2022/03/09 05:10:14;;;;;;;0.50;0.10;;;30.10;59.90;;;;;;5055000;28;20372;-88
2022/03/09 05:12:41;;;;;;;3.80;0.30;;;29.70;59.60;;;;;;5059740;28;20427;-90
2022/03/09 05:15:08;;;;;;;2.80;0.35;;;29.50;60.70;;;;;;5054215;28;20380;-90
2022/03/09 05:17:45;;;;;;;3.50;0.20;;;29.70;61.10;;;;;;5056977;28;20383;-88
2022/03/09 05:20:15;;;;;;;1.02;0.40;;;29.10;60.40;;;;;;5056174;28;20391;-90
2022/03/09 05:22:43;;;;;;;2.05;0.40;;;29.00;61.80;;;;;;5057519;28;20376;-88
2022/03/09 05:25:10;;;;;;;2.58;0.30;;;28.20;63.50;;;;;;5058392;28;20387;-87
2022/03/09 05:27:38;;;;;;;1.65;0.35;;;28.50;65.10;;;;;;5057642;28;20393;-88
2022/03/09 05:30:06;;;;;;;2.33;0.20;;;28.10;63.60;;;;;;5055836;28;20895;-91
2022/03/09 05:32:33;;;;;;;3.50;0.40;;;27.10;65.80;;;;;;5058909;28;20441;-88
2022/03/09 05:35:00;;;;;;;2.50;0.30;;;26.70;67.70;;;;;;5057166;28;20399;-90
2022/03/09 05:37:28;;;;;;;1.87;0.30;;;26.20;68.90;;;;;;5056345;28;20731;-94
2022/03/09 05:39:59;;;;;;;2.13;0.32;;;26.10;70.20;;;;;;5042026;28;20404;-87
2022/03/09 05:42:33;;;;;;;1.13;0.22;;;26.80;68.20;;;;;;5055798;28;20408;-90
2022/03/09 05:45:00;;;;;;;2.03;0.28;;;27.70;67.00;;;;;;5053418;28;20375;-91
2022/03/09 05:47:26;;;;;;;1.35;0.20;;;28.70;63.50;;;;;;5031487;28;20388;-89
2022/03/09 05:49:53;;;;;;;3.08;0.35;;;29.50;60.80;;;;;;5030593;28;20400;-87
2022/03/09 05:52:21;;;;;;;0.93;0.30;;;29.20;60.70;;;;;;5045464;28;20395;-86
2022/03/09 05:54:48;;;;;;;1.37;0.23;;;29.20;60.50;;;;;;5050289;28;20388;-90
2022/03/09 05:57:22;;;;;;;0.73;0.20;;;29.20;60.80;;;;;;5048458;28;20378;-84
2022/03/09 05:59:49;;;;;;;4.38;0.30;;;29.70;59.50;;;;;;5074013;28;20394;-84
2022/03/09 06:02:16;;;;;;;2.20;0.40;;;29.70;58.50;;;;;;5049569;28;20464;-89
2022/03/09 06:04:45;;;;;;;0.40;0.10;;;28.50;61.30;;;;;;5050602;28;20380;-88
2022/03/09 06:07:12;;;;;;;2.77;0.40;;;27.80;61.00;;;;;;5050330;28;20375;-89
2022/03/09 06:09:39;;;;;;;3.50;0.40;;;27.20;62.90;;;;;;5049417;28;20384;-86
2022/03/09 06:12:08;;;;;;;4.35;0.50;;;26.80;64.00;;;;;;5049701;28;20380;-87
2022/03/09 06:14:35;;;;;;;3.33;0.60;;;26.90;66.60;;;;;;5049246;28;20949;-87
2022/03/09 06:17:02;;;;;;;6.10;0.63;;;25.90;67.00;;;;;;5049446;28;20442;-89
2022/03/09 06:19:29;;;;;;;3.42;0.30;;;25.90;66.90;;;;;;5049112;28;20433;-88
2022/03/09 06:21:56;;;;;;;2.88;0.30;;;25.60;68.20;;;;;;5031383;28;20377;-87
2022/03/09 06:24:23;;;;;;;12.52;0.85;;;25.40;68.40;;;;;;5028728;28;20420;-87
2022/03/09 06:26:50;;;;;;;4.75;0.50;;;25.70;68.20;;;;;;5044648;28;20395;-86
2022/03/09 06:29:19;;;;;;;4.00;0.43;;;25.50;70.40;;;;;;5049202;28;20380;-88
2022/03/09 06:31:47;;;;;;;11.65;0.90;;;25.50;69.30;;;;;;5079540;28;20375;-86
2022/03/09 06:34:13;;;;;;;3.33;0.60;;;25.50;69.10;;;;;;5040060;28;20394;-88
2022/03/09 06:36:44;;;;;;;4.13;0.60;;;25.60;69.80;;;;;;5028817;28;20753;-84
2022/03/09 06:39:13;;;;;;;4.13;0.30;;;25.60;68.80;;;;;;5029656;28;20386;-84
2022/03/09 06:41:45;;;;;;;6.57;0.60;;;25.50;69.00;;;;;;5028980;28;20424;-86
2022/03/09 06:44:13;;;;;;;3.08;0.40;;;25.60;69.00;;;;;;5021916;28;20405;-84
2022/03/09 06:46:41;;;;;;;2.42;0.35;;;25.80;67.70;;;;;;5047770;28;20901;-83
2022/03/09 06:49:08;;;;;;;1.40;0.20;;;25.60;67.80;;;;;;5050862;28;20412;-84
2022/03/09 06:51:35;;;;;;;7.30;0.50;;;25.30;68.80;;;;;;5051149;28;20840;-82
2022/03/09 06:54:02;;;;;;;1.83;0.20;;;25.00;71.10;;;;;;5047117;28;20408;-85
2022/03/09 06:56:29;;;;;;;1.30;0.10;;;24.70;71.70;;;;;;5047940;28;20380;-84
2022/03/09 06:58:56;;;;;;;1.20;0.20;;;24.50;72.20;;;;;;5046119;28;20431;-87
2022/03/09 07:01:23;;;;;;;0.80;0.10;;;24.30;72.30;;;;;;5046994;28;20376;-84
2022/03/09 07:03:50;;;;;;;0.50;0.17;;;24.50;72.80;;;;;;5029613;28;20389;-89
2022/03/09 07:06:17;;;;;;;1.58;0.25;;;24.70;72.50;;;;;;5027605;28;20389;-86
2022/03/09 07:08:44;;;;;;;0.20;0.00;;;24.80;72.60;;;;;;5027600;28;20388;-87
2022/03/09 07:11:11;;;;;;;1.47;0.30;;;24.80;71.90;;;;;;5027927;28;20439;-86
2022/03/09 07:13:38;;;;;;;3.40;0.50;;;24.50;71.90;;;;;;5028249;28;20399;-86
2022/03/09 07:16:05;;;;;;;3.37;0.60;;;24.30;73.30;;;;;;5037729;28;20397;-87
2022/03/09 07:18:32;;;;;;;2.60;0.30;;;24.10;74.30;;;;;;5034900;28;20389;-85
2022/03/09 07:20:59;;;;;;;74.65;58.00;;;23.90;75.10;;;;;;5040346;28;20535;-83
2022/03/09 07:23:26;;;;;;;1.23;1.08;;;23.70;76.70;;;;;;5036372;28;20384;-85
2022/03/09 07:25:53;;;;;;;6.20;3.15;;;24.20;76.90;;;;;;5039392;28;20376;-88
2022/03/09 07:28:20;;;;;;;2.50;1.75;;;25.10;73.70;;;;;;5043538;28;20894;-85
2022/03/09 07:30:47;;;;;;;0.60;0.20;;;26.00;69.60;;;;;;5041883;28;20380;-87
2022/03/09 07:33:15;;;;;;;1.80;0.37;;;26.60;66.90;;;;;;5037095;28;20403;-86
2022/03/09 07:35:45;;;;;;;0.60;0.28;;;27.00;65.20;;;;;;5037983;28;20405;-86
2022/03/09 07:38:13;;;;;;;1.15;0.20;;;27.30;64.30;;;;;;5038659;28;20439;-84
2022/03/09 07:40:40;;;;;;;0.40;0.20;;;27.20;63.30;;;;;;5034844;28;20381;-85
2022/03/09 07:43:07;;;;;;;0.40;0.20;;;27.10;64.00;;;;;;5026332;28;20381;-87
2022/03/09 07:45:34;;;;;;;0.25;0.20;;;26.90;63.90;;;;;;5033414;28;20395;-89
2022/03/09 07:48:02;;;;;;;0.47;0.28;;;26.30;65.90;;;;;;5045297;28;20426;-85
2022/03/09 07:50:29;;;;;;;1.95;0.32;;;25.80;67.90;;;;;;5035923;28;20390;-87
2022/03/09 07:52:56;;;;;;;1.00;0.40;;;25.40;69.80;;;;;;5027822;28;20436;-87
2022/03/09 07:55:23;;;;;;;2.33;0.40;;;25.20;71.20;;;;;;5033841;28;20427;-84
2022/03/09 07:57:50;;;;;;;1.50;0.20;;;25.20;72.40;;;;;;5029756;28;20461;-86
2022/03/09 08:00:17;;;;;;;0.68;0.30;;;25.20;72.20;;;;;;5043841;28;20905;-87
2022/03/09 08:02:44;;;;;;;2.40;0.30;;;24.90;71.90;;;;;;5032868;28;20451;-87
2022/03/09 08:05:11;;;;;;;0.30;0.30;;;24.50;73.20;;;;;;5035986;28;20444;-83
2022/03/09 08:07:39;;;;;;;0.50;0.30;;;24.10;75.00;;;;;;5047905;28;20880;-91
2022/03/09 08:10:06;;;;;;;1.00;0.30;;;23.70;77.10;;;;;;5036703;28;20867;-81
2022/03/09 08:12:34;;;;;;;0.35;0.30;;;23.40;79.30;;;;;;5046858;28;20387;-83
2022/03/09 08:15:01;;;;;;;1.00;0.35;;;23.10;81.80;;;;;;5045242;28;21211;-80
2022/03/09 08:17:28;;;;;;;1.35;0.40;;;22.90;82.70;;;;;;5046819;28;20391;-79
2022/03/09 08:19:55;;;;;;;1.35;0.40;;;22.70;85.60;;;;;;5043143;28;20501;-86
2022/03/09 08:22:22;;;;;;;0.57;0.30;;;22.60;88.20;;;;;;5026730;28;20382;-85
2022/03/09 08:24:50;;;;;;;0.82;0.47;;;22.40;90.80;;;;;;5026926;28;20380;-87
2022/03/09 08:27:17;;;;;;;1.38;0.30;;;22.30;90.80;;;;;;5034870;28;20375;-83
2022/03/09 08:29:44;;;;;;;1.10;0.45;;;22.20;91.00;;;;;;5047222;28;20380;-82
2022/03/09 08:32:11;;;;;;;4.33;0.40;;;22.10;92.50;;;;;;5045477;28;20400;-82
2022/03/09 08:34:38;;;;;;;1.70;0.40;;;22.00;93.00;;;;;;5046770;28;20482;-84
2022/03/09 08:37:05;;;;;;;1.13;0.50;;;21.90;93.60;;;;;;5046607;28;20844;-87
2022/03/09 08:39:32;;;;;;;0.90;0.60;;;21.80;94.10;;;;;;5045039;28;20397;-82
2022/03/09 08:41:59;;;;;;;1.63;0.60;;;21.70;95.20;;;;;;5035673;28;20381;-84
2022/03/09 08:44:26;;;;;;;2.22;0.80;;;21.60;96.30;;;;;;5040863;28;20387;-90
2022/03/09 08:46:53;;;;;;;2.50;1.00;;;21.50;97.30;;;;;;5037798;28;20387;-90
2022/03/09 08:49:20;;;;;;;5.43;1.30;;;21.40;98.30;;;;;;5036053;28;20388;-89
2022/03/09 08:51:47;;;;;;;6.18;1.50;;;21.40;98.60;;;;;;5050357;28;20394;-87
2022/03/09 08:54:14;;;;;;;4.05;1.60;;;21.30;99.40;;;;;;5057255;28;20530;-83
2022/03/09 08:56:41;;;;;;;5.38;1.50;;;21.30;99.80;;;;;;5051165;28;20429;-83
2022/03/09 08:59:23;;;;;;;4.45;1.60;;;21.30;99.90;;;;;;5060132;28;20762;-88
2022/03/09 09:01:50;;;;;;;5.07;1.77;;;21.30;99.90;;;;;;5020851;28;20381;-92
2022/03/09 09:04:17;;;;;;;6.95;1.98;;;21.20;99.90;;;;;;5053725;28;20480;-91
2022/03/09 09:06:44;;;;;;;7.68;2.15;;;21.10;99.90;;;;;;5056246;28;20738;-88
2022/03/09 09:09:11;;;;;;;7.90;2.60;;;21.10;99.90;;;;;;5054807;28;20422;-85
2022/03/09 09:11:38;;;;;;;8.27;2.65;;;20.90;99.90;;;;;;5058632;28;20434;-89
2022/03/09 09:14:05;;;;;;;10.77;2.80;;;20.80;99.90;;;;;;5065666;28;20414;-89
2022/03/09 09:16:32;;;;;;;7.25;2.38;;;20.70;99.90;;;;;;5052876;28;20466;-90
2022/03/09 09:18:59;;;;;;;7.70;2.50;;;20.50;99.90;;;;;;5058703;28;20420;-87
2022/03/09 09:21:26;;;;;;;9.75;2.22;;;20.40;99.90;;;;;;5052305;28;20387;-86
2022/03/09 09:23:53;;;;;;;9.77;2.47;;;20.30;99.90;;;;;;5075771;28;20862;-88
2022/03/09 09:26:20;;;;;;;11.45;2.35;;;20.20;99.90;;;;;;5052473;28;20470;-93
2022/03/09 09:28:47;;;;;;;7.60;2.30;;;20.10;99.90;;;;;;5056122;28;20388;-89
2022/03/09 09:31:14;;;;;;;8.48;2.00;;;20.10;99.90;;;;;;5068280;28;20386;-82
2022/03/09 09:33:41;;;;;;;8.88;2.20;;;20.00;99.90;;;;;;5057988;28;21111;-87
2022/03/09 09:36:08;;;;;;;9.80;1.93;;;20.00;99.90;;;;;;5051520;28;20497;-84
2022/03/09 09:38:35;;;;;;;7.97;2.20;;;19.90;99.90;;;;;;5051647;28;21306;-87
2022/03/09 09:41:02;;;;;;;9.35;2.35;;;19.90;99.90;;;;;;5067240;28;20874;-84
2022/03/09 09:43:30;;;;;;;9.25;2.10;;;19.90;99.90;;;;;;5051736;28;20484;-87
2022/03/09 09:45:57;;;;;;;8.93;2.25;;;19.80;99.90;;;;;;5059336;28;20386;-89
2022/03/09 09:48:24;;;;;;;8.57;2.20;;;19.80;99.90;;;;;;5057064;28;20420;-87
2022/03/09 09:50:52;;;;;;;8.18;2.30;;;19.80;99.90;;;;;;5065354;28;20477;-85
2022/03/09 09:53:23;;;;;;;10.52;2.50;;;19.70;99.90;;;;;;5059700;28;20409;-87
2022/03/09 09:55:50;;;;;;;12.25;2.78;;;19.60;99.90;;;;;;5062151;28;20906;-88
2022/03/09 09:58:20;;;;;;;13.02;2.50;;;19.60;99.90;;;;;;5057304;28;20396;-82
2022/03/09 10:00:47;;;;;;;9.73;2.42;;;19.60;99.90;;;;;;5038581;28;20748;-88
2022/03/09 10:03:14;;;;;;;11.35;2.72;;;19.60;99.90;;;;;;5031922;28;20917;-87
2022/03/09 10:05:41;;;;;;;9.30;2.25;;;19.60;99.90;;;;;;5058390;28;20411;-83
2022/03/09 10:08:10;;;;;;;9.02;2.50;;;19.50;99.90;;;;;;5050487;28;20499;-89
2022/03/09 10:10:43;;;;;;;10.65;2.70;;;19.50;99.90;;;;;;5053976;28;20397;-86
2022/03/09 10:13:11;;;;;;;10.15;2.10;;;19.50;99.90;;;;;;5064795;28;20459;-90
2022/03/09 10:15:38;;;;;;;10.85;2.65;;;19.50;99.90;;;;;;5051781;28;21170;-83
2022/03/09 10:18:17;;;;;;;10.43;2.50;;;19.40;99.90;;;;;;5055043;28;20904;-85
2022/03/09 10:20:45;;;;;;;9.60;2.40;;;19.30;99.90;;;;;;5069184;28;20446;-82
2022/03/09 10:23:12;;;;;;;11.50;2.50;;;19.20;99.90;;;;;;5069930;28;20854;-85
2022/03/09 10:25:40;;;;;;;9.30;2.50;;;19.20;99.90;;;;;;5069697;28;20441;-81
2022/03/09 10:28:09;;;;;;;8.40;2.35;;;19.20;99.90;;;;;;5075827;28;20374;-88
2022/03/09 10:30:39;;;;;;;9.13;2.38;;;19.10;99.90;;;;;;5076284;28;20434;-92
2022/03/09 10:33:11;;;;;;;7.87;1.93;;;19.10;99.90;;;;;;5066642;28;21227;-89
2022/03/09 10:35:44;;;;;;;11.40;2.35;;;19.00;99.90;;;;;;5065528;28;20383;-82
2022/03/09 10:38:32;;;;;;;9.65;2.00;;;19.00;99.90;;;;;;5064507;28;20796;-84
2022/03/09 10:41:05;;;;;;;9.38;2.30;;;18.90;99.90;;;;;;5048681;28;20376;-81
2022/03/09 10:43:33;;;;;;;10.00;2.20;;;18.90;99.90;;;;;;5058096;28;20489;-87
2022/03/09 10:46:12;;;;;;;9.95;2.30;;;18.80;99.90;;;;;;5056423;28;20429;-89
2022/03/09 10:48:52;;;;;;;6.75;2.22;;;18.80;99.90;;;;;;5068172;28;20370;-80
2022/03/09 10:51:53;;;;;;;7.55;2.35;;;18.80;99.90;;;;;;5062964;28;20403;-87
2022/03/09 10:54:28;;;;;;;9.63;2.40;;;18.70;99.90;;;;;;4948184;29;20411;-83
2022/03/09 10:57:10;;;;;;;7.13;2.10;;;18.70;99.90;;;;;;4981707;28;20408;-84
2022/03/09 10:59:46;;;;;;;8.20;2.40;;;18.60;99.90;;;;;;4987085;28;20404;-85
2022/03/09 11:02:15;;;;;;;9.13;2.10;;;18.60;99.90;;;;;;4987799;28;20377;-82
2022/03/09 11:04:42;;;;;;;8.15;2.13;;;18.50;99.90;;;;;;4987955;28;20407;-86
2022/03/09 11:07:10;;;;;;;8.00;2.15;;;18.50;99.90;;;;;;4987559;28;20392;-87
2022/03/09 11:09:37;;;;;;;8.98;2.40;;;18.50;99.90;;;;;;4987663;28;20405;-84
2022/03/09 11:12:05;;;;;;;10.95;2.13;;;18.50;99.90;;;;;;4980735;28;20495;-83
2022/03/09 11:14:32;;;;;;;12.73;2.28;;;18.50;99.90;;;;;;4967223;28;20455;-83
2022/03/09 11:17:00;;;;;;;10.60;2.30;;;18.50;99.90;;;;;;4982359;28;20433;-82
2022/03/09 11:19:27;;;;;;;10.48;2.30;;;18.40;99.90;;;;;;4977730;28;20461;-87
2022/03/09 11:21:55;;;;;;;10.13;2.28;;;18.50;99.90;;;;;;4967618;28;20390;-83
2022/03/09 11:24:22;;;;;;;10.50;2.60;;;18.50;99.90;;;;;;4968470;28;20430;-84
2022/03/09 11:26:56;;;;;;;12.20;2.75;;;18.40;99.90;;;;;;4968833;28;20398;-83
2022/03/09 11:29:37;;;;;;;11.30;2.70;;;18.40;99.90;;;;;;5000588;28;20414;-89
2022/03/09 11:32:09;;;;;;;16.13;2.97;;;18.50;99.90;;;;;;5050254;28;20783;-82
2022/03/09 11:34:44;;;;;;;12.88;2.67;;;18.40;99.90;;;;;;5034142;28;20513;-86
2022/03/09 11:37:20;;;;;;;12.43;2.40;;;18.40;99.90;;;;;;5029127;28;20373;-84
2022/03/09 11:39:48;;;;;;;10.73;2.58;;;18.40;99.90;;;;;;5032285;28;20399;-90
2022/03/09 11:42:21;;;;;;;11.80;2.45;;;18.40;99.90;;;;;;5048077;28;20399;-82
2022/03/09 11:44:49;;;;;;;14.30;2.90;;;18.40;99.90;;;;;;5049710;28;20391;-86
2022/03/09 11:47:17;;;;;;;12.75;2.70;;;18.30;99.90;;;;;;5048024;28;20381;-89
2022/03/09 11:49:52;;;;;;;14.52;2.70;;;18.20;99.90;;;;;;5048672;28;20387;-82
2022/03/09 11:52:24;;;;;;;12.98;2.80;;;18.10;99.90;;;;;;5066055;28;20398;-84
2022/03/09 11:54:56;;;;;;;10.30;2.43;;;18.10;99.90;;;;;;5061583;28;20512;-83
2022/03/09 11:57:30;;;;;;;10.32;2.33;;;18.10;99.90;;;;;;5068231;28;20376;-84
2022/03/09 12:00:13;;;;;;;11.23;2.40;;;18.10;99.90;;;;;;5068884;28;20378;-87
2022/03/09 12:02:40;;;;;;;10.20;2.28;;;18.00;99.90;;;;;;5067710;28;20421;-82
2022/03/09 12:05:19;;;;;;;9.85;2.20;;;18.00;99.90;;;;;;5069120;28;20371;-89
2022/03/09 12:07:47;;;;;;;9.52;2.45;;;17.90;99.90;;;;;;5068826;28;20404;-83
2022/03/09 12:10:16;;;;;;;9.82;2.30;;;17.90;99.90;;;;;;5067728;28;20424;-89
2022/03/09 12:13:18;;;;;;;8.45;2.22;;;17.80;99.90;;;;;;5068783;28;20421;-82
2022/03/09 12:16:04;;;;;;;10.07;2.33;;;17.80;99.90;;;;;;5070215;28;20382;-89
2022/03/09 12:18:38;;;;;;;8.13;2.27;;;17.80;99.90;;;;;;5069085;28;20854;-91
2022/03/09 12:21:07;;;;;;;10.27;2.30;;;17.70;99.90;;;;;;5068597;28;20409;-83
2022/03/09 12:23:35;;;;;;;9.05;2.42;;;17.70;99.90;;;;;;5069990;28;20409;-90
2022/03/09 12:26:02;;;;;;;11.20;2.15;;;17.60;99.90;;;;;;5054744;28;20477;-84
2022/03/09 12:28:35;;;;;;;11.32;2.45;;;17.50;99.90;;;;;;5067289;28;20745;-84
2022/03/09 12:31:19;;;;;;;10.98;2.30;;;17.50;99.90;;;;;;5069702;28;20386;-83
2022/03/09 12:33:51;;;;;;;10.38;2.60;;;17.40;99.90;;;;;;5071278;28;20429;-93
2022/03/09 12:36:25;;;;;;;14.95;2.58;;;17.40;99.90;;;;;;5073426;28;20780;-93
2022/03/09 12:38:54;;;;;;;18.03;2.73;;;17.30;99.90;;;;;;5053872;28;20401;-86
2022/03/09 12:41:41;;;;;;;12.03;2.70;;;17.30;99.90;;;;;;5055659;28;20414;-82
2022/03/09 12:44:11;;;;;;;10.90;2.63;;;17.30;99.90;;;;;;5071720;28;20558;-88
2022/03/09 12:46:40;;;;;;;15.63;3.13;;;17.20;99.90;;;;;;5071580;28;20431;-85
2022/03/09 12:49:08;;;;;;;10.18;2.50;;;17.10;99.90;;;;;;5054918;28;20378;-84
2022/03/09 12:51:37;;;;;;;7.85;2.40;;;17.20;99.90;;;;;;5061214;28;20409;-92
2022/03/09 12:54:05;;;;;;;10.38;2.45;;;17.20;99.90;;;;;;5052077;28;20410;-92